sensor_id;sensor_type;location;lat;lon;timestamp;P1;durP1;ratioP1;P2;durP2;ratioP2
66626;SDS011;53498;50.422;14.912;2023-06-14T00:00:33;5.47;;;3.95;;
66626;SDS011;53498;50.422;14.912;2023-06-14T00:03:20;5.00;;;3.95;;
66626;SDS011;53498;50.422;14.912;2023-06-14T00:05:47;5.85;;;4.18;;
66626;SDS011;53498;50.422;14.912;2023-06-14T00:08:13;6.38;;;4.13;;
66626;SDS011;53498;50.422;14.912;2023-06-14T00:10:40;6.00;;;3.95;;
66626;SDS011;53498;50.422;14.912;2023-06-14T00:13:09;4.05;;;3.50;;
66626;SDS011;53498;50.422;14.912;2023-06-14T00:15:35;5.32;;;4.30;;
66626;SDS011;53498;50.422;14.912;2023-06-14T00:18:01;5.75;;;4.13;;
66626;SDS011;53498;50.422;14.912;2023-06-14T00:20:28;5.10;;;3.70;;
66626;SDS011;53498;50.422;14.912;2023-06-14T00:22:55;5.45;;;4.18;;
66626;SDS011;53498;50.422;14.912;2023-06-14T00:25:22;6.63;;;4.57;;
66626;SDS011;53498;50.422;14.912;2023-06-14T00:27:50;6.75;;;5.05;;
66626;SDS011;53498;50.422;14.912;2023-06-14T00:30:16;5.30;;;4.78;;
66626;SDS011;53498;50.422;14.912;2023-06-14T00:32:43;5.65;;;4.40;;
66626;SDS011;53498;50.422;14.912;2023-06-14T00:35:09;6.22;;;4.70;;
66626;SDS011;53498;50.422;14.912;2023-06-14T00:37:35;7.32;;;5.00;;
66626;SDS011;53498;50.422;14.912;2023-06-14T00:40:01;5.40;;;4.35;;
66626;SDS011;53498;50.422;14.912;2023-06-14T00:42:29;6.35;;;4.70;;
66626;SDS011;53498;50.422;14.912;2023-06-14T00:44:56;4.43;;;4.03;;
66626;SDS011;53498;50.422;14.912;2023-06-14T00:47:21;4.72;;;4.22;;
66626;SDS011;53498;50.422;14.912;2023-06-14T00:49:48;6.10;;;4.82;;
66626;SDS011;53498;50.422;14.912;2023-06-14T00:52:16;6.00;;;4.53;;
66626;SDS011;53498;50.422;14.912;2023-06-14T00:54:43;6.10;;;4.70;;
66626;SDS011;53498;50.422;14.912;2023-06-14T00:57:09;9.15;;;5.25;;
66626;SDS011;53498;50.422;14.912;2023-06-14T00:59:37;5.25;;;4.75;;
66626;SDS011;53498;50.422;14.912;2023-06-14T01:02:07;7.43;;;4.70;;
66626;SDS011;53498;50.422;14.912;2023-06-14T01:04:33;5.78;;;4.60;;
66626;SDS011;53498;50.422;14.912;2023-06-14T01:07:01;7.82;;;5.28;;
66626;SDS011;53498;50.422;14.912;2023-06-14T01:09:46;6.53;;;4.22;;
66626;SDS011;53498;50.422;14.912;2023-06-14T01:12:29;5.25;;;4.72;;
66626;SDS011;53498;50.422;14.912;2023-06-14T01:14:57;6.22;;;5.13;;
66626;SDS011;53498;50.422;14.912;2023-06-14T01:17:25;7.20;;;5.22;;
66626;SDS011;53498;50.422;14.912;2023-06-14T01:19:52;4.95;;;4.30;;
66626;SDS011;53498;50.422;14.912;2023-06-14T01:22:25;7.22;;;4.75;;
66626;SDS011;53498;50.422;14.912;2023-06-14T01:24:52;6.40;;;4.90;;
66626;SDS011;53498;50.422;14.912;2023-06-14T01:27:22;4.97;;;4.50;;
66626;SDS011;53498;50.422;14.912;2023-06-14T01:29:50;5.22;;;4.78;;
66626;SDS011;53498;50.422;14.912;2023-06-14T01:32:22;6.60;;;4.53;;
66626;SDS011;53498;50.422;14.912;2023-06-14T01:34:49;7.07;;;4.80;;
66626;SDS011;53498;50.422;14.912;2023-06-14T01:37:15;7.53;;;5.25;;
66626;SDS011;53498;50.422;14.912;2023-06-14T01:39:42;5.85;;;4.63;;
66626;SDS011;53498;50.422;14.912;2023-06-14T01:42:18;6.88;;;4.82;;
66626;SDS011;53498;50.422;14.912;2023-06-14T01:44:44;7.20;;;5.10;;
66626;SDS011;53498;50.422;14.912;2023-06-14T01:47:12;5.72;;;4.20;;
66626;SDS011;53498;50.422;14.912;2023-06-14T01:49:40;6.40;;;4.97;;
66626;SDS011;53498;50.422;14.912;2023-06-14T01:52:08;4.75;;;4.15;;
66626;SDS011;53498;50.422;14.912;2023-06-14T01:54:35;7.72;;;4.40;;
66626;SDS011;53498;50.422;14.912;2023-06-14T01:57:03;5.22;;;4.20;;
66626;SDS011;53498;50.422;14.912;2023-06-14T01:59:29;5.45;;;4.55;;
66626;SDS011;53498;50.422;14.912;2023-06-14T02:01:56;7.80;;;4.53;;
66626;SDS011;53498;50.422;14.912;2023-06-14T02:04:22;5.63;;;4.30;;
66626;SDS011;53498;50.422;14.912;2023-06-14T02:06:47;6.15;;;4.57;;
66626;SDS011;53498;50.422;14.912;2023-06-14T02:09:13;5.95;;;4.95;;
66626;SDS011;53498;50.422;14.912;2023-06-14T02:11:38;5.38;;;4.20;;
66626;SDS011;53498;50.422;14.912;2023-06-14T02:14:04;5.75;;;5.05;;
66626;SDS011;53498;50.422;14.912;2023-06-14T02:16:31;6.55;;;5.00;;
66626;SDS011;53498;50.422;14.912;2023-06-14T02:18:58;5.45;;;4.57;;
66626;SDS011;53498;50.422;14.912;2023-06-14T02:21:23;6.68;;;4.72;;
66626;SDS011;53498;50.422;14.912;2023-06-14T02:23:49;6.15;;;4.78;;
66626;SDS011;53498;50.422;14.912;2023-06-14T02:26:14;5.72;;;5.22;;
66626;SDS011;53498;50.422;14.912;2023-06-14T02:28:40;4.88;;;4.38;;
66626;SDS011;53498;50.422;14.912;2023-06-14T02:31:06;5.13;;;4.65;;
66626;SDS011;53498;50.422;14.912;2023-06-14T02:33:31;7.15;;;4.63;;
66626;SDS011;53498;50.422;14.912;2023-06-14T02:35:57;5.20;;;4.70;;
66626;SDS011;53498;50.422;14.912;2023-06-14T02:38:23;6.80;;;4.80;;
66626;SDS011;53498;50.422;14.912;2023-06-14T02:40:49;5.80;;;4.65;;
66626;SDS011;53498;50.422;14.912;2023-06-14T02:43:14;5.72;;;4.60;;
66626;SDS011;53498;50.422;14.912;2023-06-14T02:45:42;6.95;;;4.50;;
66626;SDS011;53498;50.422;14.912;2023-06-14T02:48:08;6.63;;;4.93;;
66626;SDS011;53498;50.422;14.912;2023-06-14T02:50:33;5.43;;;4.70;;
66626;SDS011;53498;50.422;14.912;2023-06-14T02:52:59;5.68;;;4.65;;
66626;SDS011;53498;50.422;14.912;2023-06-14T02:55:24;6.57;;;4.65;;
66626;SDS011;53498;50.422;14.912;2023-06-14T02:57:51;6.35;;;4.93;;
66626;SDS011;53498;50.422;14.912;2023-06-14T03:00:18;9.48;;;5.00;;
66626;SDS011;53498;50.422;14.912;2023-06-14T03:02:44;5.72;;;4.80;;
66626;SDS011;53498;50.422;14.912;2023-06-14T03:05:11;5.75;;;4.68;;
66626;SDS011;53498;50.422;14.912;2023-06-14T03:07:36;6.32;;;5.25;;
66626;SDS011;53498;50.422;14.912;2023-06-14T03:10:10;7.90;;;5.37;;
66626;SDS011;53498;50.422;14.912;2023-06-14T03:12:38;6.38;;;5.20;;
66626;SDS011;53498;50.422;14.912;2023-06-14T03:15:04;5.35;;;4.72;;
66626;SDS011;53498;50.422;14.912;2023-06-14T03:17:30;5.60;;;5.10;;
66626;SDS011;53498;50.422;14.912;2023-06-14T03:20:01;6.38;;;5.07;;
66626;SDS011;53498;50.422;14.912;2023-06-14T03:22:27;9.68;;;4.97;;
66626;SDS011;53498;50.422;14.912;2023-06-14T03:24:53;6.50;;;5.45;;
66626;SDS011;53498;50.422;14.912;2023-06-14T03:27:19;6.07;;;5.05;;
66626;SDS011;53498;50.422;14.912;2023-06-14T03:29:44;7.47;;;5.35;;
66626;SDS011;53498;50.422;14.912;2023-06-14T03:32:11;6.53;;;5.60;;
66626;SDS011;53498;50.422;14.912;2023-06-14T03:34:36;9.13;;;5.40;;
66626;SDS011;53498;50.422;14.912;2023-06-14T03:37:04;6.53;;;4.50;;
66626;SDS011;53498;50.422;14.912;2023-06-14T03:39:30;6.72;;;5.32;;
66626;SDS011;53498;50.422;14.912;2023-06-14T03:41:56;7.68;;;4.78;;
66626;SDS011;53498;50.422;14.912;2023-06-14T03:44:22;5.03;;;4.57;;
66626;SDS011;53498;50.422;14.912;2023-06-14T03:46:47;6.20;;;5.15;;
66626;SDS011;53498;50.422;14.912;2023-06-14T03:49:13;6.20;;;4.40;;
66626;SDS011;53498;50.422;14.912;2023-06-14T03:51:39;8.15;;;4.85;;
66626;SDS011;53498;50.422;14.912;2023-06-14T03:54:05;7.45;;;5.18;;
66626;SDS011;53498;50.422;14.912;2023-06-14T03:56:31;5.80;;;4.55;;
66626;SDS011;53498;50.422;14.912;2023-06-14T03:58:57;5.07;;;4.57;;
66626;SDS011;53498;50.422;14.912;2023-06-14T04:01:23;7.03;;;5.55;;
66626;SDS011;53498;50.422;14.912;2023-06-14T04:03:54;7.40;;;5.13;;
66626;SDS011;53498;50.422;14.912;2023-06-14T04:06:21;6.00;;;4.70;;
66626;SDS011;53498;50.422;14.912;2023-06-14T04:08:47;6.30;;;4.45;;
66626;SDS011;53498;50.422;14.912;2023-06-14T04:11:15;9.18;;;4.75;;
66626;SDS011;53498;50.422;14.912;2023-06-14T04:13:40;6.15;;;4.35;;
66626;SDS011;53498;50.422;14.912;2023-06-14T04:16:06;6.82;;;5.25;;
66626;SDS011;53498;50.422;14.912;2023-06-14T04:18:31;8.55;;;4.93;;
66626;SDS011;53498;50.422;14.912;2023-06-14T04:20:57;6.28;;;4.70;;
66626;SDS011;53498;50.422;14.912;2023-06-14T04:23:23;6.22;;;4.72;;
66626;SDS011;53498;50.422;14.912;2023-06-14T04:25:48;5.35;;;4.85;;
66626;SDS011;53498;50.422;14.912;2023-06-14T04:28:14;5.60;;;4.50;;
66626;SDS011;53498;50.422;14.912;2023-06-14T04:30:41;5.85;;;4.47;;
66626;SDS011;53498;50.422;14.912;2023-06-14T04:33:07;5.65;;;4.68;;
66626;SDS011;53498;50.422;14.912;2023-06-14T04:35:35;5.78;;;5.15;;
66626;SDS011;53498;50.422;14.912;2023-06-14T04:38:01;6.72;;;4.63;;
66626;SDS011;53498;50.422;14.912;2023-06-14T04:40:30;5.88;;;4.63;;
66626;SDS011;53498;50.422;14.912;2023-06-14T04:42:56;6.38;;;5.28;;
66626;SDS011;53498;50.422;14.912;2023-06-14T04:45:23;6.57;;;5.35;;
66626;SDS011;53498;50.422;14.912;2023-06-14T04:47:49;6.45;;;5.07;;
66626;SDS011;53498;50.422;14.912;2023-06-14T04:50:16;6.15;;;5.55;;
66626;SDS011;53498;50.422;14.912;2023-06-14T04:52:43;7.55;;;4.90;;
66626;SDS011;53498;50.422;14.912;2023-06-14T04:55:09;5.13;;;4.63;;
66626;SDS011;53498;50.422;14.912;2023-06-14T04:57:35;6.80;;;5.03;;
66626;SDS011;53498;50.422;14.912;2023-06-14T05:00:00;5.53;;;4.47;;
66626;SDS011;53498;50.422;14.912;2023-06-14T05:02:29;9.15;;;6.25;;
66626;SDS011;53498;50.422;14.912;2023-06-14T05:04:56;6.40;;;5.03;;
66626;SDS011;53498;50.422;14.912;2023-06-14T05:07:22;10.25;;;4.63;;
66626;SDS011;53498;50.422;14.912;2023-06-14T05:09:52;6.63;;;4.68;;
66626;SDS011;53498;50.422;14.912;2023-06-14T05:12:18;6.78;;;4.35;;
66626;SDS011;53498;50.422;14.912;2023-06-14T05:14:44;5.60;;;4.45;;
66626;SDS011;53498;50.422;14.912;2023-06-14T05:17:10;5.18;;;4.78;;
66626;SDS011;53498;50.422;14.912;2023-06-14T05:19:36;6.32;;;4.85;;
66626;SDS011;53498;50.422;14.912;2023-06-14T05:22:01;4.82;;;4.25;;
66626;SDS011;53498;50.422;14.912;2023-06-14T05:24:28;5.32;;;4.82;;
66626;SDS011;53498;50.422;14.912;2023-06-14T05:26:55;7.40;;;4.43;;
66626;SDS011;53498;50.422;14.912;2023-06-14T05:29:22;5.40;;;4.30;;
66626;SDS011;53498;50.422;14.912;2023-06-14T05:31:47;4.43;;;4.03;;
66626;SDS011;53498;50.422;14.912;2023-06-14T05:34:13;6.13;;;4.47;;
66626;SDS011;53498;50.422;14.912;2023-06-14T05:36:38;6.40;;;3.88;;
66626;SDS011;53498;50.422;14.912;2023-06-14T05:39:04;4.97;;;4.22;;
66626;SDS011;53498;50.422;14.912;2023-06-14T05:41:31;5.65;;;4.20;;
66626;SDS011;53498;50.422;14.912;2023-06-14T05:43:57;4.25;;;3.78;;
66626;SDS011;53498;50.422;14.912;2023-06-14T05:46:23;6.97;;;4.90;;
66626;SDS011;53498;50.422;14.912;2023-06-14T05:48:51;6.18;;;4.65;;
66626;SDS011;53498;50.422;14.912;2023-06-14T05:51:17;4.75;;;3.78;;
66626;SDS011;53498;50.422;14.912;2023-06-14T05:53:48;4.93;;;4.30;;
66626;SDS011;53498;50.422;14.912;2023-06-14T05:56:14;5.85;;;4.63;;
66626;SDS011;53498;50.422;14.912;2023-06-14T05:58:41;5.97;;;4.03;;
66626;SDS011;53498;50.422;14.912;2023-06-14T06:01:06;4.18;;;3.58;;
66626;SDS011;53498;50.422;14.912;2023-06-14T06:03:32;4.35;;;3.72;;
66626;SDS011;53498;50.422;14.912;2023-06-14T06:05:58;4.82;;;4.00;;
66626;SDS011;53498;50.422;14.912;2023-06-14T06:08:24;5.20;;;3.88;;
66626;SDS011;53498;50.422;14.912;2023-06-14T06:10:51;8.15;;;3.60;;
66626;SDS011;53498;50.422;14.912;2023-06-14T06:13:17;5.03;;;3.60;;
66626;SDS011;53498;50.422;14.912;2023-06-14T06:15:42;7.65;;;4.28;;
66626;SDS011;53498;50.422;14.912;2023-06-14T06:18:08;4.40;;;4.00;;
66626;SDS011;53498;50.422;14.912;2023-06-14T06:20:34;4.93;;;3.30;;
66626;SDS011;53498;50.422;14.912;2023-06-14T06:22:59;7.30;;;3.55;;
66626;SDS011;53498;50.422;14.912;2023-06-14T06:25:26;3.83;;;3.25;;
66626;SDS011;53498;50.422;14.912;2023-06-14T06:27:53;5.72;;;3.80;;
66626;SDS011;53498;50.422;14.912;2023-06-14T06:30:19;6.18;;;4.28;;
66626;SDS011;53498;50.422;14.912;2023-06-14T06:32:46;5.97;;;4.90;;
66626;SDS011;53498;50.422;14.912;2023-06-14T06:35:12;5.32;;;3.85;;
66626;SDS011;53498;50.422;14.912;2023-06-14T06:37:38;4.28;;;3.88;;
66626;SDS011;53498;50.422;14.912;2023-06-14T06:40:04;4.82;;;3.65;;
66626;SDS011;53498;50.422;14.912;2023-06-14T06:42:31;5.70;;;3.40;;
66626;SDS011;53498;50.422;14.912;2023-06-14T06:44:57;5.78;;;3.95;;
66626;SDS011;53498;50.422;14.912;2023-06-14T06:47:23;4.07;;;3.53;;
66626;SDS011;53498;50.422;14.912;2023-06-14T06:49:50;4.88;;;3.58;;
66626;SDS011;53498;50.422;14.912;2023-06-14T06:52:15;4.40;;;4.00;;
66626;SDS011;53498;50.422;14.912;2023-06-14T06:54:41;6.63;;;4.25;;
66626;SDS011;53498;50.422;14.912;2023-06-14T06:57:07;6.47;;;4.30;;
66626;SDS011;53498;50.422;14.912;2023-06-14T06:59:33;5.45;;;4.50;;
66626;SDS011;53498;50.422;14.912;2023-06-14T07:01:59;5.18;;;3.70;;
66626;SDS011;53498;50.422;14.912;2023-06-14T07:04:25;4.63;;;3.58;;
66626;SDS011;53498;50.422;14.912;2023-06-14T07:06:50;4.25;;;3.85;;
66626;SDS011;53498;50.422;14.912;2023-06-14T07:09:16;4.80;;;3.75;;
66626;SDS011;53498;50.422;14.912;2023-06-14T07:11:43;3.63;;;3.25;;
66626;SDS011;53498;50.422;14.912;2023-06-14T07:14:09;4.93;;;3.65;;
66626;SDS011;53498;50.422;14.912;2023-06-14T07:16:34;4.90;;;3.80;;
66626;SDS011;53498;50.422;14.912;2023-06-14T07:19:01;5.18;;;3.90;;
66626;SDS011;53498;50.422;14.912;2023-06-14T07:21:28;4.93;;;3.60;;
66626;SDS011;53498;50.422;14.912;2023-06-14T07:23:53;5.85;;;3.83;;
66626;SDS011;53498;50.422;14.912;2023-06-14T07:26:19;5.55;;;3.70;;
66626;SDS011;53498;50.422;14.912;2023-06-14T07:28:46;5.07;;;3.88;;
66626;SDS011;53498;50.422;14.912;2023-06-14T07:31:12;4.65;;;3.53;;
66626;SDS011;53498;50.422;14.912;2023-06-14T07:33:38;5.13;;;3.80;;
66626;SDS011;53498;50.422;14.912;2023-06-14T07:36:04;4.60;;;4.15;;
66626;SDS011;53498;50.422;14.912;2023-06-14T07:38:29;5.85;;;3.78;;
66626;SDS011;53498;50.422;14.912;2023-06-14T07:40:55;5.00;;;3.90;;
66626;SDS011;53498;50.422;14.912;2023-06-14T07:43:21;7.45;;;3.92;;
66626;SDS011;53498;50.422;14.912;2023-06-14T07:45:46;7.38;;;3.83;;
66626;SDS011;53498;50.422;14.912;2023-06-14T07:48:12;5.78;;;4.38;;
66626;SDS011;53498;50.422;14.912;2023-06-14T07:50:38;5.05;;;3.95;;
66626;SDS011;53498;50.422;14.912;2023-06-14T07:53:03;4.57;;;3.50;;
66626;SDS011;53498;50.422;14.912;2023-06-14T07:55:29;7.47;;;3.92;;
66626;SDS011;53498;50.422;14.912;2023-06-14T07:57:54;4.13;;;3.55;;
66626;SDS011;53498;50.422;14.912;2023-06-14T08:00:20;5.00;;;3.63;;
66626;SDS011;53498;50.422;14.912;2023-06-14T08:02:46;5.07;;;4.20;;
66626;SDS011;53498;50.422;14.912;2023-06-14T08:05:11;4.78;;;3.53;;
66626;SDS011;53498;50.422;14.912;2023-06-14T08:07:38;6.28;;;3.47;;
66626;SDS011;53498;50.422;14.912;2023-06-14T08:10:05;4.05;;;3.25;;
66626;SDS011;53498;50.422;14.912;2023-06-14T08:12:32;3.97;;;3.55;;
66626;SDS011;53498;50.422;14.912;2023-06-14T08:14:58;5.00;;;3.40;;
66626;SDS011;53498;50.422;14.912;2023-06-14T08:17:23;4.05;;;3.65;;
66626;SDS011;53498;50.422;14.912;2023-06-14T08:19:50;4.18;;;3.38;;
66626;SDS011;53498;50.422;14.912;2023-06-14T08:22:16;3.72;;;3.22;;
66626;SDS011;53498;50.422;14.912;2023-06-14T08:24:42;3.75;;;2.95;;
66626;SDS011;53498;50.422;14.912;2023-06-14T08:27:07;4.07;;;3.58;;
66626;SDS011;53498;50.422;14.912;2023-06-14T08:29:34;5.43;;;4.22;;
66626;SDS011;53498;50.422;14.912;2023-06-14T08:31:59;5.47;;;3.65;;
66626;SDS011;53498;50.422;14.912;2023-06-14T08:34:25;6.95;;;3.95;;
66626;SDS011;53498;50.422;14.912;2023-06-14T08:36:51;4.65;;;4.15;;
66626;SDS011;53498;50.422;14.912;2023-06-14T08:39:17;4.47;;;3.80;;
66626;SDS011;53498;50.422;14.912;2023-06-14T08:41:43;4.30;;;3.90;;
66626;SDS011;53498;50.422;14.912;2023-06-14T08:44:12;4.38;;;3.83;;
66626;SDS011;53498;50.422;14.912;2023-06-14T08:46:37;4.32;;;3.90;;
66626;SDS011;53498;50.422;14.912;2023-06-14T08:49:04;3.70;;;3.40;;
66626;SDS011;53498;50.422;14.912;2023-06-14T08:51:30;6.28;;;4.45;;
66626;SDS011;53498;50.422;14.912;2023-06-14T08:54:02;4.65;;;3.05;;
66626;SDS011;53498;50.422;14.912;2023-06-14T08:56:29;4.80;;;3.45;;
66626;SDS011;53498;50.422;14.912;2023-06-14T08:58:59;4.80;;;3.83;;
66626;SDS011;53498;50.422;14.912;2023-06-14T09:01:35;5.30;;;3.75;;
66626;SDS011;53498;50.422;14.912;2023-06-14T09:04:02;4.78;;;3.40;;
66626;SDS011;53498;50.422;14.912;2023-06-14T09:06:30;4.43;;;3.80;;
66626;SDS011;53498;50.422;14.912;2023-06-14T09:08:57;6.68;;;3.83;;
66626;SDS011;53498;50.422;14.912;2023-06-14T09:11:23;3.55;;;3.20;;
66626;SDS011;53498;50.422;14.912;2023-06-14T09:13:49;4.35;;;3.33;;
66626;SDS011;53498;50.422;14.912;2023-06-14T09:16:15;3.70;;;3.40;;
66626;SDS011;53498;50.422;14.912;2023-06-14T09:18:42;4.07;;;3.60;;
66626;SDS011;53498;50.422;14.912;2023-06-14T09:21:10;3.47;;;3.17;;
66626;SDS011;53498;50.422;14.912;2023-06-14T09:23:37;3.95;;;3.33;;
66626;SDS011;53498;50.422;14.912;2023-06-14T09:26:10;4.35;;;3.75;;
66626;SDS011;53498;50.422;14.912;2023-06-14T09:28:36;4.25;;;3.75;;
66626;SDS011;53498;50.422;14.912;2023-06-14T09:31:06;3.50;;;3.20;;
66626;SDS011;53498;50.422;14.912;2023-06-14T09:33:33;3.80;;;3.42;;
66626;SDS011;53498;50.422;14.912;2023-06-14T09:35:59;4.50;;;4.10;;
66626;SDS011;53498;50.422;14.912;2023-06-14T09:38:25;3.72;;;3.17;;
66626;SDS011;53498;50.422;14.912;2023-06-14T09:40:51;4.50;;;3.63;;
66626;SDS011;53498;50.422;14.912;2023-06-14T09:43:17;4.03;;;3.30;;
66626;SDS011;53498;50.422;14.912;2023-06-14T09:45:43;3.70;;;3.40;;
66626;SDS011;53498;50.422;14.912;2023-06-14T09:48:11;3.70;;;3.35;;
66626;SDS011;53498;50.422;14.912;2023-06-14T09:50:37;3.90;;;3.53;;
66626;SDS011;53498;50.422;14.912;2023-06-14T09:53:07;4.43;;;3.40;;
66626;SDS011;53498;50.422;14.912;2023-06-14T09:55:36;6.47;;;4.07;;
66626;SDS011;53498;50.422;14.912;2023-06-14T09:58:06;4.22;;;3.60;;
66626;SDS011;53498;50.422;14.912;2023-06-14T10:00:33;3.97;;;3.45;;
66626;SDS011;53498;50.422;14.912;2023-06-14T10:03:00;4.15;;;3.75;;
66626;SDS011;53498;50.422;14.912;2023-06-14T10:05:31;4.07;;;3.67;;
66626;SDS011;53498;50.422;14.912;2023-06-14T10:08:04;5.60;;;4.22;;
66626;SDS011;53498;50.422;14.912;2023-06-14T10:10:32;4.88;;;3.97;;
66626;SDS011;53498;50.422;14.912;2023-06-14T10:12:58;4.50;;;3.58;;
66626;SDS011;53498;50.422;14.912;2023-06-14T10:15:32;3.88;;;3.40;;
66626;SDS011;53498;50.422;14.912;2023-06-14T10:18:09;6.05;;;3.58;;
66626;SDS011;53498;50.422;14.912;2023-06-14T10:21:04;3.30;;;3.00;;
66626;SDS011;53498;50.422;14.912;2023-06-14T10:23:45;6.03;;;3.65;;
66626;SDS011;53498;50.422;14.912;2023-06-14T10:26:20;4.35;;;3.60;;
66626;SDS011;53498;50.422;14.912;2023-06-14T10:28:57;3.97;;;3.58;;
66626;SDS011;53498;50.422;14.912;2023-06-14T10:31:41;5.35;;;3.25;;
66626;SDS011;53498;50.422;14.912;2023-06-14T10:34:08;4.57;;;3.70;;
66626;SDS011;53498;50.422;14.912;2023-06-14T10:36:34;4.35;;;3.58;;
66626;SDS011;53498;50.422;14.912;2023-06-14T10:39:04;4.68;;;3.70;;
66626;SDS011;53498;50.422;14.912;2023-06-14T10:41:39;4.30;;;3.90;;
66626;SDS011;53498;50.422;14.912;2023-06-14T10:46:37;4.72;;;3.33;;
66626;SDS011;53498;50.422;14.912;2023-06-14T10:49:03;5.82;;;4.28;;
66626;SDS011;53498;50.422;14.912;2023-06-14T10:51:30;5.88;;;3.13;;
66626;SDS011;53498;50.422;14.912;2023-06-14T10:54:11;7.35;;;4.82;;
66626;SDS011;53498;50.422;14.912;2023-06-14T10:56:47;4.07;;;3.67;;
66626;SDS011;53498;50.422;14.912;2023-06-14T10:59:14;5.57;;;3.25;;
66626;SDS011;53498;50.422;14.912;2023-06-14T11:01:41;4.28;;;3.47;;
66626;SDS011;53498;50.422;14.912;2023-06-14T11:04:22;4.53;;;3.53;;
66626;SDS011;53498;50.422;14.912;2023-06-14T11:07:10;4.97;;;3.55;;
66626;SDS011;53498;50.422;14.912;2023-06-14T11:09:58;4.85;;;3.72;;
66626;SDS011;53498;50.422;14.912;2023-06-14T11:12:39;8.30;;;4.10;;
66626;SDS011;53498;50.422;14.912;2023-06-14T11:15:08;4.35;;;2.85;;
66626;SDS011;53498;50.422;14.912;2023-06-14T11:17:33;6.75;;;3.60;;
66626;SDS011;53498;50.422;14.912;2023-06-14T11:20:11;5.32;;;3.50;;
66626;SDS011;53498;50.422;14.912;2023-06-14T11:22:41;8.07;;;4.32;;
66626;SDS011;53498;50.422;14.912;2023-06-14T11:25:08;6.78;;;3.75;;
66626;SDS011;53498;50.422;14.912;2023-06-14T11:27:35;4.63;;;3.22;;
66626;SDS011;53498;50.422;14.912;2023-06-14T11:30:01;5.75;;;3.90;;
66626;SDS011;53498;50.422;14.912;2023-06-14T11:32:27;6.43;;;2.83;;
66626;SDS011;53498;50.422;14.912;2023-06-14T11:34:53;7.65;;;3.90;;
66626;SDS011;53498;50.422;14.912;2023-06-14T11:37:19;3.88;;;2.92;;
66626;SDS011;53498;50.422;14.912;2023-06-14T11:39:45;3.90;;;2.97;;
66626;SDS011;53498;50.422;14.912;2023-06-14T11:42:16;3.55;;;2.83;;
66626;SDS011;53498;50.422;14.912;2023-06-14T11:44:46;3.22;;;2.70;;
66626;SDS011;53498;50.422;14.912;2023-06-14T11:47:12;4.90;;;3.60;;
66626;SDS011;53498;50.422;14.912;2023-06-14T11:49:38;4.13;;;2.70;;
66626;SDS011;53498;50.422;14.912;2023-06-14T11:52:04;3.30;;;2.90;;
66626;SDS011;53498;50.422;14.912;2023-06-14T11:54:31;3.92;;;3.10;;
66626;SDS011;53498;50.422;14.912;2023-06-14T11:56:57;5.97;;;2.92;;
66626;SDS011;53498;50.422;14.912;2023-06-14T11:59:24;4.25;;;2.72;;
66626;SDS011;53498;50.422;14.912;2023-06-14T12:01:50;4.60;;;2.85;;
66626;SDS011;53498;50.422;14.912;2023-06-14T12:04:24;3.80;;;2.90;;
66626;SDS011;53498;50.422;14.912;2023-06-14T12:06:51;4.78;;;3.50;;
66626;SDS011;53498;50.422;14.912;2023-06-14T12:09:18;5.47;;;3.05;;
66626;SDS011;53498;50.422;14.912;2023-06-14T12:11:44;4.10;;;3.05;;
66626;SDS011;53498;50.422;14.912;2023-06-14T12:14:10;5.03;;;3.22;;
66626;SDS011;53498;50.422;14.912;2023-06-14T12:16:39;4.93;;;3.10;;
66626;SDS011;53498;50.422;14.912;2023-06-14T12:19:15;5.90;;;3.22;;
66626;SDS011;53498;50.422;14.912;2023-06-14T12:21:42;5.13;;;3.10;;
66626;SDS011;53498;50.422;14.912;2023-06-14T12:24:12;3.72;;;2.83;;
66626;SDS011;53498;50.422;14.912;2023-06-14T12:26:41;7.65;;;3.70;;
66626;SDS011;53498;50.422;14.912;2023-06-14T12:29:07;6.45;;;3.50;;
66626;SDS011;53498;50.422;14.912;2023-06-14T12:31:33;4.57;;;2.95;;
66626;SDS011;53498;50.422;14.912;2023-06-14T12:33:59;4.55;;;3.10;;
66626;SDS011;53498;50.422;14.912;2023-06-14T12:36:28;4.32;;;2.70;;
66626;SDS011;53498;50.422;14.912;2023-06-14T12:38:54;4.95;;;3.40;;
66626;SDS011;53498;50.422;14.912;2023-06-14T12:41:20;4.55;;;3.30;;
66626;SDS011;53498;50.422;14.912;2023-06-14T12:43:49;5.63;;;3.63;;
66626;SDS011;53498;50.422;14.912;2023-06-14T12:46:15;4.43;;;2.92;;
66626;SDS011;53498;50.422;14.912;2023-06-14T12:48:41;3.85;;;3.17;;
66626;SDS011;53498;50.422;14.912;2023-06-14T12:51:06;3.42;;;2.90;;
66626;SDS011;53498;50.422;14.912;2023-06-14T12:53:32;3.70;;;2.70;;
66626;SDS011;53498;50.422;14.912;2023-06-14T12:55:57;4.28;;;3.72;;
66626;SDS011;53498;50.422;14.912;2023-06-14T12:58:23;3.83;;;2.60;;
66626;SDS011;53498;50.422;14.912;2023-06-14T13:00:49;7.65;;;4.15;;
66626;SDS011;53498;50.422;14.912;2023-06-14T13:03:15;4.63;;;3.55;;
66626;SDS011;53498;50.422;14.912;2023-06-14T13:05:40;4.55;;;3.53;;
66626;SDS011;53498;50.422;14.912;2023-06-14T13:08:08;5.35;;;3.33;;
66626;SDS011;53498;50.422;14.912;2023-06-14T13:10:34;5.60;;;3.10;;
66626;SDS011;53498;50.422;14.912;2023-06-14T13:13:00;6.25;;;3.13;;
66626;SDS011;53498;50.422;14.912;2023-06-14T13:15:25;4.28;;;3.03;;
66626;SDS011;53498;50.422;14.912;2023-06-14T13:17:52;4.43;;;3.40;;
66626;SDS011;53498;50.422;14.912;2023-06-14T13:20:17;4.68;;;3.20;;
66626;SDS011;53498;50.422;14.912;2023-06-14T13:22:43;5.03;;;3.40;;
66626;SDS011;53498;50.422;14.912;2023-06-14T13:25:09;5.35;;;3.83;;
66626;SDS011;53498;50.422;14.912;2023-06-14T13:27:34;4.93;;;3.70;;
66626;SDS011;53498;50.422;14.912;2023-06-14T13:30:00;5.32;;;3.65;;
66626;SDS011;53498;50.422;14.912;2023-06-14T13:32:26;5.88;;;3.90;;
66626;SDS011;53498;50.422;14.912;2023-06-14T13:34:51;6.50;;;3.90;;
66626;SDS011;53498;50.422;14.912;2023-06-14T13:37:17;6.03;;;3.65;;
66626;SDS011;53498;50.422;14.912;2023-06-14T13:39:45;5.95;;;3.80;;
66626;SDS011;53498;50.422;14.912;2023-06-14T13:42:11;6.00;;;4.38;;
66626;SDS011;53498;50.422;14.912;2023-06-14T13:44:37;5.90;;;4.40;;
66626;SDS011;53498;50.422;14.912;2023-06-14T13:47:03;8.02;;;4.43;;
66626;SDS011;53498;50.422;14.912;2023-06-14T13:49:28;7.35;;;5.10;;
66626;SDS011;53498;50.422;14.912;2023-06-14T13:51:54;6.35;;;4.25;;
66626;SDS011;53498;50.422;14.912;2023-06-14T13:54:20;6.18;;;4.35;;
66626;SDS011;53498;50.422;14.912;2023-06-14T13:56:46;5.57;;;4.43;;
66626;SDS011;53498;50.422;14.912;2023-06-14T13:59:12;6.63;;;4.95;;
66626;SDS011;53498;50.422;14.912;2023-06-14T14:01:38;5.97;;;4.15;;
66626;SDS011;53498;50.422;14.912;2023-06-14T14:04:04;6.03;;;4.57;;
66626;SDS011;53498;50.422;14.912;2023-06-14T14:06:30;6.35;;;4.47;;
66626;SDS011;53498;50.422;14.912;2023-06-14T14:08:56;5.32;;;3.85;;
66626;SDS011;53498;50.422;14.912;2023-06-14T14:11:22;6.72;;;5.10;;
66626;SDS011;53498;50.422;14.912;2023-06-14T14:13:48;7.53;;;5.13;;
66626;SDS011;53498;50.422;14.912;2023-06-14T14:16:14;6.30;;;4.95;;
66626;SDS011;53498;50.422;14.912;2023-06-14T14:18:40;8.00;;;4.90;;
66626;SDS011;53498;50.422;14.912;2023-06-14T14:21:06;7.75;;;5.63;;
66626;SDS011;53498;50.422;14.912;2023-06-14T14:23:31;4.55;;;4.05;;
66626;SDS011;53498;50.422;14.912;2023-06-14T14:25:57;7.40;;;4.78;;
66626;SDS011;53498;50.422;14.912;2023-06-14T14:28:23;6.88;;;4.90;;
66626;SDS011;53498;50.422;14.912;2023-06-14T14:30:49;6.60;;;4.85;;
66626;SDS011;53498;50.422;14.912;2023-06-14T14:33:14;6.15;;;4.55;;
66626;SDS011;53498;50.422;14.912;2023-06-14T14:35:43;7.47;;;4.40;;